createdAt,value
2022-11-28T00:01:17.842Z,99579.84
2022-11-28T00:03:44.914Z,99580.47
2022-11-28T00:06:13.493Z,99583.03
2022-11-28T00:08:40.595Z,99576.97
2022-11-28T00:11:10.492Z,99584.63
2022-11-28T00:13:37.982Z,99582.72
2022-11-28T00:16:07.319Z,99586.88
2022-11-28T00:18:34.881Z,99581.00
2022-11-28T00:21:03.506Z,99580.84
2022-11-28T00:23:33.243Z,99576.66
2022-11-28T00:26:03.777Z,99573.34
2022-11-28T00:28:31.130Z,99570.66
2022-11-28T00:30:58.532Z,99567.44
2022-11-28T00:33:25.577Z,99569.97
2022-11-28T00:35:58.391Z,99567.44
2022-11-28T00:38:25.550Z,99564.22
2022-11-28T00:41:00.736Z,99565.03
2022-11-28T00:43:28.588Z,99560.75
2022-11-28T00:45:55.778Z,99564.22
2022-11-28T00:48:23.301Z,99555.97
2022-11-28T00:50:50.701Z,99562.00
2022-11-28T00:53:17.909Z,99554.38
2022-11-28T00:55:44.929Z,99554.50
2022-11-28T00:58:13.636Z,99557.84
2022-11-28T01:00:40.668Z,99559.47
2022-11-28T01:03:07.734Z,99552.75
2022-11-28T01:05:40.557Z,99546.06
2022-11-28T01:08:07.801Z,99550.34
2022-11-28T01:10:38.613Z,99545.41
2022-11-28T01:13:05.647Z,99547.94
2022-11-28T01:15:34.124Z,99539.53
2022-11-28T01:18:02.673Z,99541.25
2022-11-28T01:20:29.625Z,99541.25
2022-11-28T01:22:56.552Z,99546.38
2022-11-28T01:25:23.728Z,99551.47
2022-11-28T01:27:50.703Z,99542.22
2022-11-28T01:30:18.055Z,99544.63
2022-11-28T01:32:46.812Z,99539.38
2022-11-28T01:35:13.784Z,99543.50
2022-11-28T01:37:40.854Z,99540.00
2022-11-28T01:40:08.897Z,99544.16
2022-11-28T01:42:35.896Z,99540.00
2022-11-28T01:45:14.226Z,99539.06
2022-11-28T01:47:41.542Z,99535.56
2022-11-28T01:50:11.062Z,99540.50
2022-11-28T01:52:40.282Z,99532.72
2022-11-28T01:55:08.221Z,99540.38
2022-11-28T01:57:35.348Z,99536.84
2022-11-28T02:00:07.803Z,99541.16
2022-11-28T02:02:44.264Z,99539.41
2022-11-28T02:05:12.733Z,99534.47
2022-11-28T02:07:40.292Z,99534.59
2022-11-28T02:10:10.700Z,99539.72
2022-11-28T02:13:11.096Z,99530.31
2022-11-28T02:16:00.164Z,99529.66
2022-11-28T02:18:39.105Z,99528.22
2022-11-28T02:21:23.051Z,99519.28
2022-11-28T02:24:25.247Z,99522.28
2022-11-28T02:27:03.467Z,99523.41
2022-11-28T02:30:03.346Z,99515.75
2022-11-28T02:32:50.920Z,99521.00
2022-11-28T02:35:22.102Z,99519.88
2022-11-28T02:38:02.288Z,99520.78
2022-11-28T02:40:37.739Z,99523.66
2022-11-28T02:43:11.526Z,99510.94
2022-11-28T02:45:46.243Z,99520.16
2022-11-28T02:48:22.920Z,99521.13
2022-11-28T02:50:55.780Z,99516.97
2022-11-28T02:53:28.880Z,99529.69
2022-11-28T02:55:57.426Z,99523.97
2022-11-28T02:58:24.501Z,99527.63
2022-11-28T03:00:52.610Z,99528.06
2022-11-28T03:03:46.239Z,99524.16
2022-11-28T03:06:22.108Z,99520.09
2022-11-28T03:09:04.095Z,99523.09
2022-11-28T03:11:46.433Z,99523.25
2022-11-28T03:14:22.923Z,99540.53
2022-11-28T03:16:57.111Z,99541.16
2022-11-28T03:19:30.940Z,99537.91
2022-11-28T03:22:07.544Z,99538.34
2022-11-28T03:24:38.155Z,99546.31
2022-11-28T03:27:09.999Z,99534.25
2022-11-28T03:29:41.910Z,99536.34
2022-11-28T03:32:12.060Z,99534.31
2022-11-28T03:34:44.764Z,99535.59
2022-11-28T03:37:16.745Z,99536.56
2022-11-28T03:39:48.829Z,99537.38
2022-11-28T03:42:21.088Z,99536.56
2022-11-28T03:44:54.319Z,99540.53
2022-11-28T03:47:23.211Z,99531.97
2022-11-28T03:49:54.203Z,99533.56
2022-11-28T03:52:27.495Z,99541.88
2022-11-28T03:54:59.436Z,99529.91
2022-11-28T03:57:34.248Z,99532.47
2022-11-28T04:00:04.790Z,99534.06
2022-11-28T04:02:45.892Z,99532.97
2022-11-28T04:05:19.633Z,99531.38
2022-11-28T04:07:49.455Z,99533.75
2022-11-28T04:10:21.862Z,99545.84
2022-11-28T04:12:55.254Z,99539.00
2022-11-28T04:15:30.644Z,99536.44
2022-11-28T04:18:03.509Z,99537.25
2022-11-28T04:20:37.354Z,99545.03
2022-11-28T04:23:09.442Z,99545.84
2022-11-28T04:25:40.352Z,99533.28
2022-11-28T04:28:11.642Z,99534.22
2022-11-28T04:30:40.724Z,99531.84
2022-11-28T04:33:10.065Z,99533.56
2022-11-28T04:35:42.242Z,99541.50
2022-11-28T04:38:11.848Z,99540.53
2022-11-28T04:40:44.676Z,99535.44
2022-11-28T04:43:18.447Z,99545.97
2022-11-28T04:45:50.746Z,99545.97
2022-11-28T04:48:18.219Z,99552.78
2022-11-28T04:50:50.324Z,99552.13
2022-11-28T04:53:22.129Z,99563.41
2022-11-28T04:55:55.281Z,99559.13
2022-11-28T04:58:26.108Z,99559.25
2022-11-28T05:00:56.294Z,99565.28
2022-11-28T05:03:27.385Z,99567.81
2022-11-28T05:05:55.873Z,99573.09
2022-11-28T05:08:22.941Z,99567.19
2022-11-28T05:10:50.004Z,99570.53
2022-11-28T05:13:17.153Z,99570.69
2022-11-28T05:15:44.097Z,99581.50
2022-11-28T05:18:11.070Z,99575.78
2022-11-28T05:20:38.711Z,99578.19
2022-11-28T05:23:07.114Z,99578.19
2022-11-28T05:25:34.054Z,99578.19
2022-11-28T05:28:01.057Z,99567.19
2022-11-28T05:30:27.940Z,99579.78
2022-11-28T05:32:54.893Z,99579.78
2022-11-28T05:35:21.874Z,99581.66
2022-11-28T05:37:48.790Z,99585.97
2022-11-28T05:40:17.536Z,99588.50
2022-11-28T05:42:44.436Z,99585.00
2022-11-28T05:45:11.558Z,99583.28
2022-11-28T05:47:38.775Z,99594.22
2022-11-28T05:50:07.269Z,99595.03
2022-11-28T05:52:34.318Z,99589.00
2022-11-28T05:55:01.683Z,99593.28
2022-11-28T05:57:32.081Z,99595.19
2022-11-28T05:59:59.162Z,99596.78
2022-11-28T06:02:26.403Z,99598.53
2022-11-28T06:04:53.556Z,99594.22
2022-11-28T06:07:20.629Z,99599.03
2022-11-28T06:09:47.659Z,99604.13
2022-11-28T06:12:14.613Z,99600.63
2022-11-28T06:14:42.983Z,99595.81
2022-11-28T06:17:09.993Z,99592.63
2022-11-28T06:19:37.056Z,99595.03
2022-11-28T06:22:04.093Z,99596.63
2022-11-28T06:24:31.069Z,99599.97
2022-11-28T06:26:57.972Z,99597.16
2022-11-28T06:29:24.947Z,99600.34
2022-11-28T06:31:53.532Z,99601.78
2022-11-28T06:34:20.507Z,99610.88
2022-11-28T06:36:47.820Z,99595.47
2022-11-28T06:39:16.081Z,99605.13
2022-11-28T06:41:43.813Z,99598.16
2022-11-28T06:44:14.204Z,99599.59
2022-11-28T06:46:41.569Z,99597.06
2022-11-28T06:49:11.009Z,99600.41
2022-11-28T06:51:38.037Z,99592.78
2022-11-28T06:54:06.120Z,99586.72
2022-11-28T06:56:33.074Z,99584.97
2022-11-28T06:59:00.841Z,99582.28
2022-11-28T07:01:30.180Z,99577.19
2022-11-28T07:03:57.492Z,99575.31
2022-11-28T07:06:26.785Z,99582.53
2022-11-28T07:08:55.182Z,99579.56
2022-11-28T07:11:23.701Z,99583.53
2022-11-28T07:13:51.435Z,99574.31
2022-11-28T07:16:20.453Z,99565.06
2022-11-28T07:18:48.081Z,99556.50
2022-11-28T07:21:15.567Z,99552.03
2022-11-28T07:23:44.151Z,99559.38
2022-11-28T07:26:12.876Z,99556.69
2022-11-28T07:28:40.538Z,99544.38
2022-11-28T07:31:10.862Z,99548.84
2022-11-28T07:33:39.004Z,99541.22
2022-11-28T07:36:08.452Z,99542.78
2022-11-28T07:38:35.439Z,99535.00
2022-11-28T07:41:05.275Z,99548.53
2022-11-28T07:43:32.196Z,99538.19
2022-11-28T07:46:01.518Z,99540.28
2022-11-28T07:48:28.796Z,99539.69
2022-11-28T07:50:55.930Z,99545.13
2022-11-28T07:53:22.880Z,99542.44
2022-11-28T07:55:49.832Z,99546.59
2022-11-28T07:58:18.138Z,99543.91
2022-11-28T08:00:45.354Z,99544.69
2022-11-28T08:03:12.282Z,99545.19
2022-11-28T08:05:39.213Z,99548.88
2022-11-28T08:08:06.413Z,99547.16
2022-11-28T08:10:33.386Z,99541.63
2022-11-28T08:13:00.671Z,99547.06
2022-11-28T08:15:31.704Z,99541.00
2022-11-28T08:17:58.657Z,99537.66
2022-11-28T08:20:25.747Z,99535.44
2022-11-28T08:22:52.664Z,99535.44
2022-11-28T08:25:19.605Z,99534.03
2022-11-28T08:27:46.626Z,99539.63
2022-11-28T08:30:14.047Z,99542.19
2022-11-28T08:32:42.514Z,99535.66
2022-11-28T08:35:09.482Z,99523.69
2022-11-28T08:37:36.400Z,99522.09
2022-11-28T08:40:03.959Z,99523.22
2022-11-28T08:42:31.057Z,99526.34
2022-11-28T08:44:58.103Z,99519.81
2022-11-28T08:47:25.103Z,99526.06
2022-11-28T08:49:53.440Z,99528.16
2022-11-28T08:52:20.421Z,99524.34
2022-11-28T08:54:47.346Z,99511.13
2022-11-28T08:57:14.256Z,99512.06
2022-11-28T08:59:41.501Z,99502.16
2022-11-28T09:02:10.849Z,99500.88
2022-11-28T09:04:37.781Z,99509.78
2022-11-28T09:07:06.149Z,99506.72
2022-11-28T09:09:33.115Z,99503.06
2022-11-28T09:12:00.056Z,99509.63
2022-11-28T09:14:27.746Z,99510.91
2022-11-28T09:16:54.862Z,99502.28
2022-11-28T09:19:22.494Z,99501.69
2022-11-28T09:21:54.560Z,99500.75
2022-11-28T09:24:25.786Z,99490.75
2022-11-28T09:26:53.233Z,99485.66
2022-11-28T09:29:23.131Z,99484.22
2022-11-28T09:31:50.082Z,99471.47
2022-11-28T09:34:17.011Z,99474.19
2022-11-28T09:36:44.092Z,99475.75
2022-11-28T09:39:11.027Z,99471.63
2022-11-28T09:41:54.311Z,99473.53
2022-11-28T09:44:25.742Z,99471.63
2022-11-28T09:46:55.293Z,99459.50
2022-11-28T09:49:40.253Z,99457.31
2022-11-28T09:52:17.707Z,99457.94
2022-11-28T09:54:49.945Z,99452.19
2022-11-28T09:57:26.047Z,99442.63
2022-11-28T09:59:53.268Z,99447.25
2022-11-28T10:02:28.270Z,99451.25
2022-11-28T10:05:08.304Z,99449.34
2022-11-28T10:07:51.008Z,99452.22
2022-11-28T10:10:31.521Z,99442.81
2022-11-28T10:13:05.581Z,99445.06
2022-11-28T10:15:44.509Z,99434.53
2022-11-28T10:18:24.217Z,99439.94
2022-11-28T10:20:57.639Z,99436.44
2022-11-28T10:23:28.672Z,99435.81
2022-11-28T10:25:59.285Z,99426.72
2022-11-28T10:28:32.171Z,99426.25
2022-11-28T10:31:04.786Z,99424.81
2022-11-28T10:33:38.086Z,99425.28
2022-11-28T10:36:06.673Z,99425.63
2022-11-28T10:38:34.984Z,99416.19
2022-11-28T10:41:07.998Z,99407.59
2022-11-28T10:43:44.164Z,99408.72
2022-11-28T10:46:30.354Z,99397.38
2022-11-28T10:49:07.445Z,99399.00
2022-11-28T10:51:43.895Z,99395.16
2022-11-28T10:54:23.008Z,99392.94
2022-11-28T10:57:01.102Z,99399.94
2022-11-28T10:59:38.368Z,99393.72
2022-11-28T11:02:20.838Z,99388.78
2022-11-28T11:04:48.268Z,99382.56
2022-11-28T11:07:23.936Z,99366.59
2022-11-28T11:09:53.716Z,99352.75
2022-11-28T11:12:24.164Z,99350.81
2022-11-28T11:14:53.026Z,99358.78
2022-11-28T11:17:31.376Z,99352.28
2022-11-28T11:20:02.527Z,99346.69
2022-11-28T11:22:31.959Z,99358.50
2022-11-28T11:25:07.077Z,99342.22
2022-11-28T11:27:36.684Z,99346.06
2022-11-28T11:30:18.872Z,99351.16
2022-11-28T11:32:51.447Z,99349.72
2022-11-28T11:35:23.212Z,99349.72
2022-11-28T11:37:50.513Z,99353.25
2022-11-28T11:40:27.005Z,99354.22
2022-11-28T11:42:56.060Z,99360.09
2022-11-28T11:45:30.088Z,99362.16
2022-11-28T11:47:57.505Z,99354.38
2022-11-28T11:50:27.939Z,99356.09
2022-11-28T11:53:07.140Z,99360.41
2022-11-28T11:55:40.699Z,99353.72
2022-11-28T11:58:13.727Z,99363.09
2022-11-28T12:00:43.559Z,99351.31
2022-11-28T12:03:18.748Z,99351.00
2022-11-28T12:06:12.872Z,99342.06
2022-11-28T12:08:42.041Z,99346.22
2022-11-28T12:11:16.736Z,99342.91
2022-11-28T12:13:44.346Z,99347.34
2022-11-28T12:16:29.096Z,99343.84
2022-11-28T12:19:02.109Z,99348.28
2022-11-28T12:21:37.890Z,99343.19
2022-11-28T12:24:10.255Z,99348.44
2022-11-28T12:26:44.462Z,99339.06
2022-11-28T12:29:30.573Z,99334.91
2022-11-28T12:32:10.901Z,99337.94
2022-11-28T12:34:45.451Z,99345.75
2022-11-28T12:37:33.069Z,99343.19
2022-11-28T12:40:15.621Z,99345.59
2022-11-28T12:42:55.280Z,99348.13
2022-11-28T12:45:34.937Z,99344.94
2022-11-28T12:48:16.798Z,99347.03
2022-11-28T12:50:46.784Z,99355.47
2022-11-28T12:53:30.506Z,99351.00
2022-11-28T12:56:08.766Z,99353.25
2022-11-28T12:58:44.349Z,99350.19
2022-11-28T13:01:27.510Z,99367.72
2022-11-28T13:04:06.020Z,99366.16
2022-11-28T13:06:42.132Z,99370.28
2022-11-28T13:09:25.774Z,99371.88
2022-11-28T13:12:02.427Z,99373.78
2022-11-28T13:14:38.062Z,99361.66
2022-11-28T13:17:16.633Z,99371.25
2022-11-28T13:19:52.210Z,99358.81
2022-11-28T13:22:23.735Z,99357.22
2022-11-28T13:25:01.670Z,99366.78
2022-11-28T13:27:36.565Z,99363.72
2022-11-28T13:30:14.407Z,99365.50
2022-11-28T13:32:47.031Z,99364.84
2022-11-28T13:35:17.470Z,99375.03
2022-11-28T13:40:42.905Z,99376.31
2022-11-28T13:43:16.678Z,99383.16
2022-11-28T13:45:45.617Z,99379.50
2022-11-28T13:49:13.257Z,99379.16
2022-11-28T13:51:40.546Z,99384.88
2022-11-28T13:54:44.967Z,99377.38
2022-11-28T13:57:22.647Z,99371.50
2022-11-28T13:59:54.456Z,99374.84
2022-11-28T14:02:30.522Z,99368.00
2022-11-28T14:04:57.547Z,99378.84
2022-11-28T14:07:30.418Z,99371.81
2022-11-28T14:10:16.479Z,99374.69
2022-11-28T14:12:53.619Z,99377.69
2022-11-28T14:15:29.344Z,99366.88
2022-11-28T14:18:39.651Z,99373.84
2022-11-28T14:21:12.213Z,99382.63
2022-11-28T14:23:47.234Z,99371.63
2022-11-28T14:26:23.899Z,99375.78
2022-11-28T14:28:52.154Z,99381.81
2022-11-28T14:31:29.657Z,99381.81
2022-11-28T14:33:59.246Z,99382.78
2022-11-28T14:36:29.782Z,99374.97
2022-11-28T14:39:32.470Z,99374.66
2022-11-28T14:45:43.920Z,99378.47
2022-11-28T14:48:17.951Z,99383.88
2022-11-28T14:50:52.539Z,99382.13
2022-11-28T14:53:44.759Z,99392.16
2022-11-28T14:56:23.737Z,99386.59
2022-11-28T14:58:53.058Z,99384.19
2022-11-28T15:01:36.450Z,99390.56
2022-11-28T15:04:34.635Z,99395.34
2022-11-28T15:07:03.925Z,99387.88
2022-11-28T15:09:42.693Z,99391.38
2022-11-28T15:12:23.493Z,99392.97
2022-11-28T15:14:57.924Z,99378.63
2022-11-28T15:17:30.684Z,99386.59
2022-11-28T15:20:01.973Z,99377.50
2022-11-28T15:22:31.904Z,99392.28
2022-11-28T15:24:59.658Z,99380.66
2022-11-28T15:27:28.327Z,99379.06
2022-11-28T15:30:00.050Z,99375.88
2022-11-28T15:32:30.193Z,99379.84
2022-11-28T15:35:01.515Z,99382.25
2022-11-28T15:37:30.994Z,99384.66
2022-11-28T15:39:59.838Z,99385.59
2022-11-28T15:42:30.779Z,99384.16
2022-11-28T15:45:05.273Z,99380.66
2022-11-28T15:47:32.580Z,99386.06
2022-11-28T15:50:02.878Z,99387.78
2022-11-28T15:52:30.477Z,99390.19
2022-11-28T15:54:57.818Z,99389.25
2022-11-28T15:57:28.595Z,99389.25
2022-11-28T15:59:57.239Z,99394.50
2022-11-28T16:02:29.351Z,99394.97
2022-11-28T16:05:04.611Z,99391.47
2022-11-28T16:07:33.274Z,99385.44
2022-11-28T16:10:05.178Z,99385.59
2022-11-28T16:12:32.518Z,99394.84
2022-11-28T16:15:05.176Z,99395.50
2022-11-28T16:17:34.094Z,99393.72
2022-11-28T16:20:02.667Z,99395.63
2022-11-28T16:22:36.338Z,99388.78
2022-11-28T16:25:18.933Z,99388.00
2022-11-28T16:27:48.726Z,99386.22
2022-11-28T16:30:32.060Z,99392.28
2022-11-28T16:32:59.596Z,99388.78
2022-11-28T16:35:28.842Z,99380.22
2022-11-28T16:38:14.119Z,99394.69
2022-11-28T16:40:41.706Z,99382.91
2022-11-28T16:43:19.600Z,99386.38
2022-11-28T16:45:58.007Z,99387.19
2022-11-28T16:48:27.268Z,99386.06
2022-11-28T16:51:32.135Z,99391.31
2022-11-28T16:54:00.254Z,99383.69
2022-11-28T16:56:43.961Z,99384.78
2022-11-28T16:59:13.734Z,99388.31
2022-11-28T17:01:41.391Z,99380.00
2022-11-28T17:04:19.589Z,99377.59
2022-11-28T17:06:48.466Z,99374.28
2022-11-28T17:09:15.457Z,99372.03
2022-11-28T17:11:45.926Z,99379.84
2022-11-28T17:14:14.093Z,99375.84
2022-11-28T17:16:42.213Z,99384.41
2022-11-28T17:19:09.555Z,99392.06
2022-11-28T17:21:39.349Z,99384.28
2022-11-28T17:24:14.951Z,99384.72
2022-11-28T17:26:41.896Z,99377.69
2022-11-28T17:29:11.066Z,99373.53
2022-11-28T17:31:42.098Z,99377.84
2022-11-28T17:34:15.985Z,99367.34
2022-11-28T17:36:43.438Z,99371.63
2022-11-28T17:39:12.003Z,99376.06
2022-11-28T17:41:40.134Z,99370.34
2022-11-28T17:44:10.020Z,99365.41
2022-11-28T17:46:37.221Z,99367.16
2022-11-28T17:49:04.196Z,99356.03
2022-11-28T17:51:31.437Z,99356.97
2022-11-28T17:53:58.470Z,99367.16
2022-11-28T17:56:27.100Z,99372.09
2022-11-28T17:58:54.218Z,99366.84
2022-11-28T18:01:26.235Z,99366.69
2022-11-28T18:03:58.268Z,99363.69
2022-11-28T18:06:25.467Z,99369.06
2022-11-28T18:08:53.360Z,99377.63
2022-11-28T18:11:21.132Z,99373.19
2022-11-28T18:13:49.747Z,99378.13
2022-11-28T18:16:19.613Z,99372.91
2022-11-28T18:18:46.908Z,99378.94
2022-11-28T18:21:15.199Z,99375.75
2022-11-28T18:23:45.429Z,99368.25
2022-11-28T18:26:14.498Z,99377.97
2022-11-28T18:28:42.206Z,99371.41
2022-11-28T18:31:12.692Z,99365.53
2022-11-28T18:33:40.067Z,99370.94
2022-11-28T18:36:11.526Z,99365.97
2022-11-28T18:38:39.091Z,99362.94
2022-11-28T18:41:09.363Z,99363.22
2022-11-28T18:43:36.807Z,99371.81
2022-11-28T18:46:05.761Z,99357.81
2022-11-28T18:48:36.247Z,99351.91
2022-11-28T18:51:10.467Z,99349.53
2022-11-28T18:53:38.011Z,99351.59
2022-11-28T18:56:07.463Z,99348.22
2022-11-28T18:58:35.949Z,99350.47
2022-11-28T19:01:11.182Z,99354.94
2022-11-28T19:03:39.859Z,99352.41
2022-11-28T19:06:08.743Z,99349.84
2022-11-28T19:08:36.151Z,99360.03
2022-11-28T19:11:06.997Z,99345.69
2022-11-28T19:13:33.966Z,99351.72
2022-11-28T19:16:05.315Z,99355.22
2022-11-28T19:18:33.101Z,99352.03
2022-11-28T19:21:04.700Z,99353.91
2022-11-28T19:23:31.757Z,99344.69
2022-11-28T19:26:01.270Z,99346.59
2022-11-28T19:28:28.246Z,99347.38
2022-11-28T19:30:57.585Z,99352.47
2022-11-28T19:33:24.630Z,99352.47
2022-11-28T19:35:51.568Z,99356.78
2022-11-28T19:38:20.071Z,99365.34
2022-11-28T19:40:47.649Z,99363.09
2022-11-28T19:43:14.585Z,99353.72
2022-11-28T19:45:41.572Z,99356.41
2022-11-28T19:48:10.764Z,99355.94
2022-11-28T19:50:37.847Z,99360.50
2022-11-28T19:53:04.864Z,99355.44
2022-11-28T19:55:34.876Z,99356.69
2022-11-28T19:58:01.918Z,99356.00
2022-11-28T20:00:29.325Z,99357.13
2022-11-28T20:02:56.300Z,99363.78
2022-11-28T20:05:23.281Z,99357.94
2022-11-28T20:07:56.855Z,99365.56
2022-11-28T20:10:26.232Z,99358.38
2022-11-28T20:12:54.995Z,99355.03
2022-11-28T20:15:22.473Z,99357.84
2022-11-28T20:17:49.923Z,99359.63
2022-11-28T20:20:17.373Z,99359.09
2022-11-28T20:22:44.391Z,99347.34
2022-11-28T20:25:14.305Z,99357.19
2022-11-28T20:27:43.490Z,99353.00
2022-11-28T20:30:13.309Z,99352.09
2022-11-28T20:32:40.281Z,99356.38
2022-11-28T20:35:09.660Z,99355.25
2022-11-28T20:37:39.050Z,99356.06
2022-11-28T20:40:07.464Z,99357.50
2022-11-28T20:42:39.670Z,99350.31
2022-11-28T20:45:07.801Z,99350.91
2022-11-28T20:47:36.113Z,99352.00
2022-11-28T20:50:03.294Z,99352.00
2022-11-28T20:52:30.251Z,99348.38
2022-11-28T20:54:57.287Z,99348.22
2022-11-28T20:57:24.185Z,99347.44
2022-11-28T20:59:51.141Z,99345.53
2022-11-28T21:02:18.129Z,99347.59
2022-11-28T21:04:46.484Z,99346.16
2022-11-28T21:07:13.405Z,99351.38
2022-11-28T21:09:40.314Z,99340.53
2022-11-28T21:12:08.304Z,99349.41
2022-11-28T21:14:35.267Z,99345.59
2022-11-28T21:17:02.360Z,99353.50
2022-11-28T21:19:29.847Z,99343.31
2022-11-28T21:21:58.233Z,99342.09
2022-11-28T21:24:25.233Z,99353.84
2022-11-28T21:26:54.470Z,99349.56
2022-11-28T21:29:23.225Z,99351.66
2022-11-28T21:31:50.730Z,99353.91
2022-11-28T21:34:19.505Z,99349.47
2022-11-28T21:36:47.117Z,99353.63
2022-11-28T21:39:16.781Z,99356.47
2022-11-28T21:41:43.784Z,99352.31
2022-11-28T21:44:11.025Z,99351.53
2022-11-28T21:46:38.104Z,99352.31
2022-11-28T21:49:05.743Z,99348.31
2022-11-28T21:51:36.160Z,99351.00
2022-11-28T21:54:03.704Z,99361.31
2022-11-28T21:56:33.008Z,99360.69
2022-11-28T21:58:59.929Z,99352.09
2022-11-28T22:01:26.942Z,99355.59
2022-11-28T22:03:59.006Z,99349.72
2022-11-28T22:06:29.082Z,99347.97
2022-11-28T22:08:56.542Z,99345.06
2022-11-28T22:11:24.299Z,99334.25
2022-11-28T22:13:52.933Z,99340.41
2022-11-28T22:16:21.936Z,99345.50
2022-11-28T22:18:49.825Z,99348.03
2022-11-28T22:24:05.950Z,99338.19
2022-11-28T22:26:33.383Z,99339.13
2022-11-28T22:29:04.007Z,99339.41
2022-11-28T22:31:32.091Z,99334.59
2022-11-28T22:33:59.175Z,99323.81
2022-11-28T22:36:26.240Z,99328.38
2022-11-28T22:38:56.217Z,99321.84
2022-11-28T22:41:28.850Z,99320.56
2022-11-28T22:44:00.416Z,99319.25
2022-11-28T22:46:29.970Z,99327.97
2022-11-28T22:49:00.048Z,99316.19
2022-11-28T22:51:27.292Z,99316.19
2022-11-28T22:53:55.457Z,99311.25
2022-11-28T22:56:25.026Z,99318.22
2022-11-28T22:58:52.396Z,99313.44
2022-11-28T23:01:22.331Z,99314.25
2022-11-28T23:03:51.409Z,99321.06
2022-11-28T23:06:20.300Z,99321.22
2022-11-28T23:08:53.765Z,99318.00
2022-11-28T23:11:24.932Z,99313.72
2022-11-28T23:13:52.766Z,99316.56
2022-11-28T23:16:22.524Z,99317.38
2022-11-28T23:18:54.029Z,99318.13
2022-11-28T23:21:25.406Z,99311.34
2022-11-28T23:23:53.145Z,99316.28
2022-11-28T23:26:25.329Z,99319.75
2022-11-28T23:28:53.546Z,99317.38
2022-11-28T23:31:24.043Z,99311.47
2022-11-28T23:33:52.784Z,99311.63
2022-11-28T23:36:22.136Z,99307.34
2022-11-28T23:38:51.009Z,99312.44
2022-11-28T23:41:18.165Z,99315.91
2022-11-28T23:43:45.709Z,99305.75
2022-11-28T23:46:13.497Z,99307.63
2022-11-28T23:48:43.980Z,99309.50
2022-11-28T23:51:13.749Z,99306.03
2022-11-28T23:53:41.613Z,99305.38
2022-11-28T23:56:11.115Z,99305.53
2022-11-28T23:58:38.567Z,99299.66
